AirNav   Air Wisconsin Up To $57,000 Bonus
 
 551 users online  

MS41 Flying Y Service Airport
Tutwiler, Mississippi, USA

GOING TO TUTWILER?


FAA INFORMATION EFFECTIVE 02 JANUARY 2020

Location

FAA Identifier: MS41
Lat/Long: 34-00-10.8905N 090-25-33.1723W
34-00.181508N 090-25.552872W
34.0030251,-90.4258812
(estimated)
Elevation: 149 ft. / 45 m (estimated)
Variation: 03E (1985)
From city: 1 mile SE of TUTWILER, MS
Time zone: UTC -6 (UTC -5 during Daylight Saving Time)
Zip code: 38963

Airport Operations

Airport use: Private use. Permission required prior to landing
Activation date: 11/1946
Control tower: no
ARTCC: MEMPHIS CENTER
FSS: GREENWOOD FLIGHT SERVICE STATION
Attendance: MON-FRI DAYLIGHT HOURS
Wind indicator: yes
Segmented circle: no

Airport Communications

WX AWOS-3 at CKM (18 nm N): 120.675 (662-624-9777)

Nearby radio navigation aids

VOR radial/distance  VOR name  Freq  Var
SQSr344/33.2SIDON VORTAC114.7003E
UJMr159/36.5MARVELL VOR/DME109.6001E
GLHr040/40.0GREENVILLE VOR/DME114.2504E

Airport Services

Fuel available: A
Airframe service: NONE
Powerplant service: NONE

Runway Information

Runway N/S

Dimensions: 2400 x 20 ft. / 732 x 6 m
Surface: asphalt
RUNWAY N  RUNWAY S
Latitude: 33-59.991745N34-00.371272N
Longitude: 090-25.620292W090-25.485450W
Traffic pattern: leftleft

Airport Ownership and Management from official FAA records

Ownership: Privately-owned
Owner: FLYING Y AERO INC
BOX 250
TUTWILER, MS 38963
Phone 662-345-8395
Manager: PAT RYAN AND MONA WHITTEN
BOX 250
TUTWILER, MS 38963
Phone 662-345-8395

Airport Operational Statistics

Aircraft based on the field: 4
Single engine airplanes: 4
    

Additional Remarks

FOR CD CTC MEMPHIS ARTCC AT 901-368-8453.

Instrument Procedures

There are no published instrument procedures at MS41.

Some nearby airports with instrument procedures:

M37 - Ruleville-Drew Airport (14 nm S)
KMMS - Selfs Airport (15 nm NE)
KCKM - Fletcher Field Airport (18 nm N)
KRNV - Cleveland Municipal Airport (22 nm SW)
KGNF - Grenada Municipal Airport (33 nm E)
 
Loc | Ops | Rwys | IFR | FBO | Links
Com | Nav | Svcs | Stats | Notes
Area around MS41 (Flying Y Service Airport)
 
Road maps at: MapQuest Bing Google
 
Aerial photo
No photo
 
Sectional chart

 
Airport distance calculator
Flying to Flying Y Service Airport? Find the distance to fly.

From to MS41

Sunrise and sunset
Times for 23-Jan-2020
 Local
(UTC-6)
 Zulu
(UTC)
Morning civil twilight06:3812:38
Sunrise07:0513:05
Sunset17:2223:22
Evening civil twilight17:4923:49

Current date and time
Zulu (UTC)  23-Jan-2020 09:05:32
Local (UTC-6)  23-Jan-2020 03:05:32
 
METAR
KCKM 
18nm N 
230855Z AUTO 11007KT 8SM FEW027 SCT032 BKN044 03/02 A3011 RMK A01 P0003
KRNV 
22nm SW 
230855Z AUTO 13009KT 10SM -DZ OVC048 03/03 A3010 RMK AO2 T00300030
KPMU 
34nm NE 
230855Z AUTO 00000KT 9SM -RA FEW031 FEW043 OVC055 02/01 A3014 RMK AO2 P0003
KGWO 
35nm SE 
230853Z AUTO 11008KT 10SM -RA OVC080 04/00 A3012 RMK AO2 SLP200 P0003 60005 T00440000 58016
TAF
KGWO 
35nm SE 
230537Z 2306/2406 14005KT 6SM -RA OVC060 FM231500 13010KT 3SM -RA OVC020 FM231700 13010KT 2SM -RA OVC007 FM232000 12009KT 2SM -RA OVC004
KGLH 
41nm SW 
230537Z 2306/2406 10005KT 6SM -RA OVC060 FM230700 11009KT 5SM -RA OVC025 FM231500 11012KT 2SM -RA OVC007 FM231800 12010KT 2SM -RA OVC004 FM240400 30007KT 2SM BR OVC004
NOTAMs
Click for the latest NOTAMs
NOTAMs are issued by the DoD/FAA and will open in a separate window not controlled by AirNav.

 

 
 

Would you like to see your business listed on this page?

 If your business provides an interesting product or service to pilots, flight crews, aircraft, or users of the Flying Y Service Airport, you should consider listing it here.  To start the listing process, click on the button below
 
Add a business
 

Other Pages about Flying Y Service Airport

Update a link
 
Copyright © AirNav, LLC. All rights reserved. Privacy Policy  Contact